createdAt,value
2023-03-05T00:01:25.884Z,28.38
2023-03-05T00:06:29.292Z,29.52
2023-03-05T00:11:31.943Z,26.42
2023-03-05T00:16:34.141Z,29.40
2023-03-05T00:21:39.192Z,28.15
2023-03-05T00:26:41.052Z,27.10
2023-03-05T00:31:44.227Z,31.05
2023-03-05T00:36:51.752Z,26.45
2023-03-05T00:41:54.510Z,24.33
2023-03-05T00:46:56.063Z,29.02
2023-03-05T00:51:57.849Z,27.92
2023-03-05T00:56:59.841Z,32.63
2023-03-05T01:02:01.465Z,24.30
2023-03-05T01:07:04.990Z,23.98
2023-03-05T01:12:07.712Z,22.13
2023-03-05T01:17:09.321Z,23.58
2023-03-05T01:22:10.894Z,25.90
2023-03-05T01:27:12.473Z,26.77
2023-03-05T01:32:14.051Z,24.15
2023-03-05T01:37:15.694Z,23.85
2023-03-05T01:42:19.395Z,24.45
2023-03-05T01:47:20.975Z,24.88
2023-03-05T01:52:27.209Z,24.25
2023-03-05T01:57:38.264Z,21.88
2023-03-05T02:02:42.416Z,19.60
2023-03-05T02:07:45.163Z,18.52
2023-03-05T02:12:49.259Z,18.05
2023-03-05T02:17:50.825Z,21.73
2023-03-05T02:22:52.507Z,17.08
2023-03-05T02:28:20.395Z,17.40
2023-03-05T02:33:22.488Z,27.75
2023-03-05T02:38:24.301Z,21.90
2023-03-05T02:43:27.387Z,27.02
2023-03-05T02:48:29.110Z,18.25
2023-03-05T02:53:30.754Z,27.65
2023-03-05T02:58:32.424Z,23.73
2023-03-05T03:03:34.119Z,32.95
2023-03-05T03:08:35.728Z,22.70
2023-03-05T03:13:37.394Z,27.10
2023-03-05T03:18:39.201Z,24.52
2023-03-05T03:23:40.759Z,23.58
2023-03-05T03:28:42.382Z,19.50
2023-03-05T03:33:45.496Z,23.30
2023-03-05T03:38:47.065Z,20.80
2023-03-05T03:43:48.768Z,26.02
2023-03-05T03:48:51.579Z,25.20
2023-03-05T03:53:53.344Z,23.10
2023-03-05T03:58:55.046Z,23.80
2023-03-05T04:03:56.619Z,24.75
2023-03-05T04:08:58.544Z,29.83
2023-03-05T04:14:00.178Z,26.52
2023-03-05T04:19:01.729Z,23.70
2023-03-05T04:24:03.588Z,25.20
2023-03-05T04:29:05.190Z,30.20
2023-03-05T04:34:06.715Z,30.23
2023-03-05T04:39:08.249Z,28.00
2023-03-05T04:44:09.798Z,34.13
2023-03-05T04:49:11.352Z,23.60
2023-03-05T04:54:12.874Z,26.85
2023-03-05T04:59:16.843Z,27.85
2023-03-05T05:04:18.632Z,26.40
2023-03-05T05:09:20.203Z,27.50
2023-03-05T05:14:21.905Z,25.70
2023-03-05T05:19:23.460Z,31.73
2023-03-05T05:24:25.016Z,26.85
2023-03-05T05:29:26.725Z,22.75
2023-03-05T05:34:28.330Z,23.65
2023-03-05T05:39:29.886Z,23.05
2023-03-05T05:44:31.634Z,24.10
2023-03-05T05:49:35.612Z,23.98
2023-03-05T05:54:37.155Z,23.23
2023-03-05T05:59:39.624Z,24.35
2023-03-05T06:04:41.164Z,28.35
2023-03-05T06:09:42.720Z,27.15
2023-03-05T06:14:44.274Z,28.25
2023-03-05T06:19:46.126Z,24.85
2023-03-05T06:24:47.663Z,27.58
2023-03-05T06:29:52.563Z,24.65
2023-03-05T06:34:54.246Z,28.08
2023-03-05T06:39:55.793Z,27.92
2023-03-05T06:44:57.371Z,31.70
2023-03-05T06:49:58.925Z,26.98
2023-03-05T06:55:00.505Z,34.65
2023-03-05T07:00:02.240Z,35.97
2023-03-05T07:05:05.055Z,35.78
2023-03-05T07:10:10.115Z,29.55
2023-03-05T07:15:12.076Z,31.65
2023-03-05T07:20:14.469Z,33.90
2023-03-05T07:25:21.437Z,36.67
2023-03-05T07:30:23.186Z,33.17
2023-03-05T07:35:24.853Z,34.45
2023-03-05T07:40:26.506Z,29.23
2023-03-05T07:45:28.078Z,32.08
2023-03-05T07:50:29.661Z,32.53
2023-03-05T07:55:31.252Z,33.67
2023-03-05T08:00:32.815Z,35.00
2023-03-05T08:05:34.358Z,33.60
2023-03-05T08:10:37.159Z,33.00
2023-03-05T08:15:38.884Z,30.77
2023-03-05T08:20:40.465Z,34.90
2023-03-05T08:25:42.055Z,30.13
2023-03-05T08:30:43.664Z,33.65
2023-03-05T08:35:45.571Z,37.15
2023-03-05T08:40:48.134Z,36.58
2023-03-05T08:45:51.298Z,37.83
2023-03-05T08:50:54.556Z,40.58
2023-03-05T08:55:57.806Z,36.63
2023-03-05T09:00:59.345Z,48.72
2023-03-05T09:06:02.815Z,43.90
2023-03-05T09:11:06.549Z,35.30
2023-03-05T09:16:12.072Z,39.83
2023-03-05T09:21:16.465Z,33.25
2023-03-05T09:26:21.218Z,38.10
2023-03-05T09:31:23.317Z,28.67
2023-03-05T09:36:27.870Z,30.48
2023-03-05T09:41:51.275Z,33.10
2023-03-05T09:47:06.939Z,35.15
2023-03-05T09:52:20.753Z,29.35
2023-03-05T09:57:25.861Z,35.60
2023-03-05T10:02:35.378Z,35.05
2023-03-05T10:07:41.841Z,34.70
2023-03-05T10:12:45.754Z,31.45
2023-03-05T10:17:56.437Z,30.73
2023-03-05T10:23:19.945Z,34.28
2023-03-05T10:28:40.313Z,35.53
2023-03-05T10:34:22.540Z,36.20
2023-03-05T10:39:29.763Z,34.92
2023-03-05T10:44:34.321Z,33.95
2023-03-05T10:49:39.884Z,30.55
2023-03-05T10:54:42.917Z,30.05
2023-03-05T10:59:49.742Z,30.30
2023-03-05T11:04:51.826Z,28.35
2023-03-05T11:10:14.679Z,26.95
2023-03-05T11:15:16.410Z,27.80
2023-03-05T11:20:27.032Z,28.92
2023-03-05T11:25:28.626Z,26.20
2023-03-05T11:30:34.218Z,23.65
2023-03-05T11:35:39.998Z,25.35
2023-03-05T11:40:41.820Z,24.50
2023-03-05T11:45:45.822Z,20.92
2023-03-05T11:50:52.995Z,23.60
2023-03-05T11:56:01.618Z,31.88
2023-03-05T12:01:06.639Z,26.45
2023-03-05T12:06:20.728Z,22.73
2023-03-05T12:11:31.910Z,22.92
2023-03-05T12:16:41.977Z,22.85
2023-03-05T12:21:44.593Z,23.70
2023-03-05T12:27:04.663Z,25.88
2023-03-05T12:32:28.757Z,20.13
2023-03-05T12:37:31.159Z,26.88
2023-03-05T12:42:32.681Z,23.15
2023-03-05T12:47:34.221Z,26.17
2023-03-05T12:52:35.799Z,29.15
2023-03-05T12:57:37.441Z,25.08
2023-03-05T13:02:42.569Z,26.52
2023-03-05T13:07:49.662Z,23.70
2023-03-05T13:12:53.801Z,27.42
2023-03-05T13:18:03.554Z,20.77
2023-03-05T13:28:17.215Z,24.98
2023-03-05T13:33:29.466Z,25.35
2023-03-05T13:38:36.294Z,25.05
2023-03-05T13:43:53.920Z,25.23
2023-03-05T13:48:56.701Z,29.80
2023-03-05T13:53:58.782Z,29.52
2023-03-05T13:59:01.150Z,24.05
2023-03-05T14:04:19.966Z,23.15
2023-03-05T14:09:27.859Z,22.52
2023-03-05T14:14:32.437Z,23.90
2023-03-05T14:19:39.247Z,23.38
2023-03-05T14:24:52.626Z,26.83
2023-03-05T14:29:54.300Z,26.23
2023-03-05T14:34:58.633Z,28.25
2023-03-05T14:40:05.515Z,25.50
2023-03-05T14:45:40.860Z,27.25
2023-03-05T14:50:46.874Z,27.10
2023-03-05T14:55:51.364Z,24.85
2023-03-05T15:00:55.295Z,27.88
2023-03-05T15:05:58.717Z,26.45
2023-03-05T15:11:01.084Z,22.65
2023-03-05T15:16:05.284Z,23.08
2023-03-05T15:21:06.855Z,25.00
2023-03-05T15:26:11.718Z,23.63
2023-03-05T15:31:15.837Z,30.08
2023-03-05T15:36:17.449Z,24.98
2023-03-05T15:41:19.128Z,25.55
2023-03-05T15:46:20.680Z,24.25
2023-03-05T15:51:22.596Z,28.33
2023-03-05T15:56:24.165Z,24.35
2023-03-05T16:01:25.851Z,29.05
2023-03-05T16:06:28.902Z,26.50
2023-03-05T16:11:33.530Z,26.80
2023-03-05T16:16:36.555Z,27.05
2023-03-05T16:21:38.238Z,27.88
2023-03-05T16:26:41.494Z,24.63
2023-03-05T16:31:45.239Z,30.10
2023-03-05T16:36:50.279Z,24.40
2023-03-05T16:41:52.633Z,23.90
2023-03-05T16:46:56.316Z,24.88
2023-03-05T16:51:59.427Z,22.77
2023-03-05T16:57:03.156Z,27.85
2023-03-05T17:02:05.593Z,24.02
2023-03-05T17:07:07.787Z,26.30
2023-03-05T17:12:09.336Z,23.38
2023-03-05T17:17:11.104Z,25.10
2023-03-05T17:22:12.954Z,21.83
2023-03-05T17:27:18.631Z,26.98
2023-03-05T17:32:20.207Z,24.17
2023-03-05T17:37:22.778Z,22.85
2023-03-05T17:42:24.320Z,23.98
2023-03-05T17:47:26.416Z,30.08
2023-03-05T17:52:28.057Z,26.38
2023-03-05T17:57:29.642Z,25.52
2023-03-05T18:02:33.429Z,25.77
2023-03-05T18:07:35.012Z,23.27
2023-03-05T18:12:36.824Z,26.05
2023-03-05T18:17:38.553Z,24.27
2023-03-05T18:22:40.115Z,21.75
2023-03-05T18:27:42.823Z,25.02
2023-03-05T18:32:47.506Z,30.02
2023-03-05T18:37:49.272Z,29.63
2023-03-05T18:42:53.236Z,28.65
2023-03-05T18:47:56.667Z,23.77
2023-03-05T18:52:58.246Z,27.17
2023-03-05T18:57:59.984Z,28.17
2023-03-05T19:03:03.443Z,27.85
2023-03-05T19:08:05.305Z,25.25
2023-03-05T19:13:28.032Z,28.45
2023-03-05T19:18:33.736Z,29.77
2023-03-05T19:23:35.601Z,23.00
2023-03-05T19:28:37.293Z,26.85
2023-03-05T19:33:38.855Z,23.85
2023-03-05T19:38:43.050Z,24.40
2023-03-05T19:43:44.592Z,23.92
2023-03-05T19:48:46.470Z,22.67
2023-03-05T19:53:48.279Z,24.02
2023-03-05T19:58:49.953Z,23.65
2023-03-05T20:03:53.954Z,23.73
2023-03-05T20:08:56.907Z,21.05
2023-03-05T20:13:58.535Z,19.52
2023-03-05T20:19:00.181Z,17.17
2023-03-05T20:24:05.038Z,18.52
2023-03-05T20:29:07.609Z,20.40
2023-03-05T20:34:12.735Z,18.13
2023-03-05T20:39:14.408Z,19.25
2023-03-05T20:44:16.525Z,17.70
2023-03-05T20:49:18.140Z,15.95
2023-03-05T20:54:20.198Z,18.02
2023-03-05T20:59:23.278Z,17.00
2023-03-05T21:04:24.847Z,17.23
2023-03-05T21:09:28.366Z,14.55
2023-03-05T21:14:31.389Z,12.45
2023-03-05T21:19:33.845Z,14.48
2023-03-05T21:24:50.486Z,13.52
2023-03-05T21:29:52.276Z,14.05
2023-03-05T21:34:54.043Z,12.68
2023-03-05T21:39:55.593Z,13.13
2023-03-05T21:44:57.130Z,11.38
2023-03-05T21:49:58.686Z,12.63
2023-03-05T21:55:00.686Z,12.35
2023-03-05T22:00:02.795Z,16.95
2023-03-05T22:05:15.539Z,17.13
2023-03-05T22:10:19.375Z,19.00
2023-03-05T22:15:21.240Z,17.02
2023-03-05T22:20:22.855Z,14.85
2023-03-05T22:25:24.363Z,17.95
2023-03-05T22:30:26.027Z,16.38
2023-03-05T22:35:28.321Z,17.27
2023-03-05T22:40:29.905Z,14.60
2023-03-05T22:45:31.551Z,12.65
2023-03-05T22:50:33.161Z,14.23
2023-03-05T22:55:34.724Z,13.00
2023-03-05T23:00:37.273Z,14.05
2023-03-05T23:05:39.207Z,16.15
2023-03-05T23:10:40.799Z,12.85
2023-03-05T23:15:42.404Z,15.13
2023-03-05T23:20:44.240Z,14.02
2023-03-05T23:25:46.150Z,13.80
2023-03-05T23:30:47.813Z,17.90
2023-03-05T23:35:55.734Z,12.48
2023-03-05T23:41:01.081Z,14.05
2023-03-05T23:46:02.869Z,14.27
2023-03-05T23:51:09.333Z,14.90
2023-03-05T23:56:12.016Z,13.05
